createdAt,value
2023-02-19T00:01:44.113Z,98557.25
2023-02-19T00:04:19.409Z,98552.22
2023-02-19T00:06:46.658Z,98552.81
2023-02-19T00:09:15.121Z,98554.91
2023-02-19T00:11:42.115Z,98559.59
2023-02-19T00:14:09.278Z,98556.41
2023-02-19T00:16:37.948Z,98557.38
2023-02-19T00:19:06.615Z,98551.97
2023-02-19T00:21:33.454Z,98557.13
2023-02-19T00:24:05.169Z,98556.63
2023-02-19T00:26:32.062Z,98557.59
2023-02-19T00:29:00.013Z,98547.72
2023-02-19T00:31:30.425Z,98544.88
2023-02-19T00:34:00.307Z,98549.00
2023-02-19T00:36:27.744Z,98542.53
2023-02-19T00:38:54.896Z,98538.88
2023-02-19T00:41:22.456Z,98546.47
2023-02-19T00:44:00.473Z,98545.50
2023-02-19T00:46:35.145Z,98545.00
2023-02-19T00:49:02.337Z,98542.06
2023-02-19T00:51:31.601Z,98540.78
2023-02-19T00:53:58.726Z,98539.75
2023-02-19T00:56:25.504Z,98547.56
2023-02-19T00:58:52.566Z,98541.56
2023-02-19T01:01:19.413Z,98545.34
2023-02-19T01:03:46.717Z,98528.56
2023-02-19T01:06:15.034Z,98523.69
2023-02-19T01:08:42.199Z,98521.34
2023-02-19T01:11:09.572Z,98516.31
2023-02-19T01:13:37.041Z,98531.63
2023-02-19T01:16:09.519Z,98536.38
2023-02-19T01:18:36.591Z,98533.19
2023-02-19T01:21:07.637Z,98536.16
2023-02-19T01:23:35.396Z,98524.50
2023-02-19T01:26:09.438Z,98512.28
2023-02-19T01:28:36.533Z,98514.47
2023-02-19T01:31:04.397Z,98509.56
2023-02-19T01:33:31.522Z,98504.78
2023-02-19T01:35:58.343Z,98498.81
2023-02-19T01:38:25.475Z,98495.41
2023-02-19T01:40:59.631Z,98493.31
2023-02-19T01:43:26.684Z,98490.22
2023-02-19T01:45:53.661Z,98487.03
2023-02-19T01:48:28.184Z,98489.63
2023-02-19T01:50:58.996Z,98490.97
2023-02-19T01:53:27.352Z,98495.03
2023-02-19T01:55:55.788Z,98494.38
2023-02-19T01:58:24.449Z,98495.03
2023-02-19T02:00:51.870Z,98500.53
2023-02-19T02:03:19.388Z,98488.28
2023-02-19T02:06:08.136Z,98478.50
2023-02-19T02:08:53.850Z,98478.13
2023-02-19T02:11:20.789Z,98475.53
2023-02-19T02:13:47.850Z,98467.34
2023-02-19T02:16:17.812Z,98451.19
2023-02-19T02:18:51.722Z,98454.75
2023-02-19T02:21:30.522Z,98439.56
2023-02-19T02:24:30.003Z,98436.13
2023-02-19T02:27:24.837Z,98434.56
2023-02-19T02:30:06.188Z,98436.38
2023-02-19T02:32:53.612Z,98443.13
2023-02-19T02:35:23.563Z,98433.81
2023-02-19T02:37:51.085Z,98427.81
2023-02-19T02:40:18.897Z,98430.88
2023-02-19T02:42:45.648Z,98434.69
2023-02-19T02:45:37.311Z,98422.06
2023-02-19T02:48:26.272Z,98407.00
2023-02-19T02:51:05.011Z,98392.94
2023-02-19T02:53:55.935Z,98389.06
2023-02-19T02:56:23.075Z,98372.38
2023-02-19T02:58:50.016Z,98372.28
2023-02-19T03:01:41.270Z,98359.56
2023-02-19T03:04:12.250Z,98375.22
2023-02-19T03:06:39.669Z,98381.34
2023-02-19T03:09:12.043Z,98389.88
2023-02-19T03:11:59.255Z,98395.25
2023-02-19T03:14:50.342Z,98399.19
2023-02-19T03:17:41.351Z,98409.06
2023-02-19T03:20:11.203Z,98404.56
2023-02-19T03:22:38.460Z,98405.41
2023-02-19T03:25:25.348Z,98398.94
2023-02-19T03:27:52.515Z,98396.50
2023-02-19T03:30:21.547Z,98397.47
2023-02-19T03:32:56.934Z,98393.19
2023-02-19T03:35:25.958Z,98404.81
2023-02-19T03:38:08.073Z,98397.47
2023-02-19T03:40:38.660Z,98396.63
2023-02-19T03:43:16.751Z,98390.25
2023-02-19T03:45:53.384Z,98394.78
2023-02-19T03:48:25.540Z,98390.63
2023-02-19T03:51:00.736Z,98393.09
2023-02-19T03:53:52.223Z,98391.34
2023-02-19T03:56:34.012Z,98389.91
2023-02-19T03:59:37.411Z,98382.66
2023-02-19T04:02:29.274Z,98353.19
2023-02-19T04:05:01.899Z,98340.09
2023-02-19T04:07:28.706Z,98352.09
2023-02-19T04:09:55.772Z,98362.00
2023-02-19T04:12:22.507Z,98362.34
2023-02-19T04:14:51.480Z,98358.81
2023-02-19T04:17:34.521Z,98371.31
2023-02-19T04:20:02.678Z,98374.13
2023-02-19T04:22:29.416Z,98370.53
2023-02-19T04:24:56.742Z,98370.41
2023-02-19T04:27:23.523Z,98362.47
2023-02-19T04:29:50.633Z,98360.66
2023-02-19T04:32:17.385Z,98363.97
2023-02-19T04:34:44.519Z,98359.78
2023-02-19T04:37:11.477Z,98357.25
2023-02-19T04:39:38.601Z,98350.88
2023-02-19T04:42:05.583Z,98332.41
2023-02-19T04:44:33.572Z,98334.97
2023-02-19T04:47:00.878Z,98324.19
2023-02-19T04:49:27.976Z,98317.13
2023-02-19T04:51:54.688Z,98305.03
2023-02-19T04:54:21.809Z,98307.22
2023-02-19T04:56:50.696Z,98299.38
2023-02-19T04:59:17.890Z,98292.81
2023-02-19T05:01:44.680Z,98278.00
2023-02-19T05:04:11.794Z,98280.56
2023-02-19T05:06:38.571Z,98277.63
2023-02-19T05:09:05.616Z,98280.81
2023-02-19T05:11:32.424Z,98273.59
2023-02-19T05:13:59.656Z,98276.41
2023-02-19T05:16:26.408Z,98275.19
2023-02-19T05:18:53.508Z,98279.09
2023-02-19T05:21:20.329Z,98280.19
2023-02-19T05:23:47.374Z,98266.75
2023-02-19T05:26:19.095Z,98255.50
2023-02-19T05:28:46.713Z,98258.44
2023-02-19T05:31:14.051Z,98280.09
2023-02-19T05:33:43.056Z,98263.34
2023-02-19T05:36:11.558Z,98262.72
2023-02-19T05:38:38.717Z,98267.00
2023-02-19T05:41:16.532Z,98281.16
2023-02-19T05:43:44.540Z,98282.78
2023-02-19T05:46:12.862Z,98291.44
2023-02-19T05:48:40.039Z,98276.41
2023-02-19T05:51:08.674Z,98286.06
2023-02-19T05:53:36.100Z,98285.81
2023-02-19T05:56:03.045Z,98292.31
2023-02-19T05:58:30.318Z,98291.94
2023-02-19T06:00:57.255Z,98286.94
2023-02-19T06:03:24.403Z,98285.22
2023-02-19T06:05:51.164Z,98287.53
2023-02-19T06:08:18.317Z,98281.41
2023-02-19T06:10:45.298Z,98285.69
2023-02-19T06:13:12.344Z,98286.56
2023-02-19T06:15:39.243Z,98288.63
2023-02-19T06:18:06.307Z,98290.09
2023-02-19T06:20:33.146Z,98283.63
2023-02-19T06:23:00.238Z,98286.31
2023-02-19T06:25:26.993Z,98282.28
2023-02-19T06:27:54.154Z,98283.03
2023-02-19T06:30:20.943Z,98278.13
2023-02-19T06:32:48.078Z,98270.66
2023-02-19T06:35:14.802Z,98270.91
2023-02-19T06:37:41.922Z,98270.28
2023-02-19T06:40:09.046Z,98266.88
2023-02-19T06:42:36.113Z,98259.28
2023-02-19T06:45:02.896Z,98267.34
2023-02-19T06:47:33.456Z,98263.53
2023-02-19T06:50:00.462Z,98257.31
2023-02-19T06:52:27.609Z,98265.75
2023-02-19T06:54:54.366Z,98265.63
2023-02-19T06:57:21.470Z,98258.28
2023-02-19T06:59:48.289Z,98257.31
2023-02-19T07:02:15.427Z,98266.13
2023-02-19T07:04:42.195Z,98267.84
2023-02-19T07:07:11.848Z,98261.84
2023-02-19T07:09:38.587Z,98265.28
2023-02-19T07:12:06.014Z,98261.84
2023-02-19T07:14:32.936Z,98260.97
2023-02-19T07:16:59.978Z,98265.38
2023-02-19T07:19:26.871Z,98264.44
2023-02-19T07:21:53.972Z,98267.13
2023-02-19T07:24:21.691Z,98260.00
2023-02-19T07:26:48.767Z,98263.66
2023-02-19T07:29:15.637Z,98256.47
2023-02-19T07:31:43.161Z,98257.19
2023-02-19T07:34:09.925Z,98249.97
2023-02-19T07:36:37.018Z,98245.72
2023-02-19T07:39:03.864Z,98239.22
2023-02-19T07:41:30.931Z,98240.94
2023-02-19T07:43:57.743Z,98237.88
2023-02-19T07:46:24.951Z,98230.78
2023-02-19T07:48:51.736Z,98238.25
2023-02-19T07:51:19.692Z,98231.84
2023-02-19T07:53:47.067Z,98231.84
2023-02-19T07:56:14.377Z,98227.34
2023-02-19T07:58:41.305Z,98223.94
2023-02-19T08:01:08.756Z,98219.41
2023-02-19T08:03:36.909Z,98216.47
2023-02-19T08:06:04.713Z,98219.16
2023-02-19T08:08:31.505Z,98218.28
2023-02-19T08:11:20.878Z,98220.13
2023-02-19T08:13:51.454Z,98221.25
2023-02-19T08:16:29.763Z,98216.13
2023-02-19T08:19:00.235Z,98221.72
2023-02-19T08:21:27.318Z,98223.53
2023-02-19T08:23:54.132Z,98223.94
2023-02-19T08:26:21.260Z,98226.22
2023-02-19T08:28:49.558Z,98242.91
2023-02-19T08:31:16.828Z,98240.44
2023-02-19T08:33:43.719Z,98246.69
2023-02-19T08:36:11.016Z,98250.50
2023-02-19T08:38:38.020Z,98249.38
2023-02-19T08:41:10.281Z,98253.03
2023-02-19T08:43:37.241Z,98250.09
2023-02-19T08:46:04.634Z,98245.59
2023-02-19T08:48:31.457Z,98246.56
2023-02-19T08:51:00.478Z,98249.38
2023-02-19T08:53:27.315Z,98256.22
2023-02-19T08:55:54.436Z,98260.00
2023-02-19T08:58:21.388Z,98258.16
2023-02-19T09:00:48.580Z,98267.00
2023-02-19T09:03:15.304Z,98268.69
2023-02-19T09:05:42.402Z,98273.69
2023-02-19T09:08:09.409Z,98272.72
2023-02-19T09:10:36.556Z,98272.72
2023-02-19T09:13:03.462Z,98280.66
2023-02-19T09:15:31.236Z,98285.91
2023-02-19T09:17:58.095Z,98293.38
2023-02-19T09:20:25.205Z,98290.94
2023-02-19T09:22:56.924Z,98285.53
2023-02-19T09:25:24.499Z,98286.03
2023-02-19T09:27:54.846Z,98292.78
2023-02-19T09:30:21.986Z,98288.59
2023-02-19T09:32:48.806Z,98284.94
2023-02-19T09:35:15.927Z,98285.41
2023-02-19T09:37:42.679Z,98283.69
2023-02-19T09:40:10.147Z,98286.25
2023-02-19T09:42:37.043Z,98295.19
2023-02-19T09:45:04.261Z,98289.94
2023-02-19T09:47:31.828Z,98301.69
2023-02-19T09:50:09.617Z,98299.59
2023-02-19T09:52:45.693Z,98309.50
2023-02-19T09:55:29.302Z,98310.00
2023-02-19T09:57:56.631Z,98306.94
2023-02-19T10:00:28.100Z,98317.72
2023-02-19T10:02:59.623Z,98321.97
2023-02-19T10:05:26.865Z,98336.44
2023-02-19T10:07:54.208Z,98334.59
2023-02-19T10:10:30.282Z,98340.69
2023-02-19T10:13:19.775Z,98348.28
2023-02-19T10:15:57.813Z,98341.34
2023-02-19T10:18:28.342Z,98338.53
2023-02-19T10:20:55.848Z,98351.09
2023-02-19T10:23:22.649Z,98353.06
2023-02-19T10:25:54.391Z,98361.25
2023-02-19T10:28:22.820Z,98363.97
2023-02-19T10:30:56.247Z,98369.81
2023-02-19T10:33:23.260Z,98366.41
2023-02-19T10:36:16.198Z,98374.59
2023-02-19T10:38:46.541Z,98381.59
2023-02-19T10:41:20.806Z,98394.81
2023-02-19T10:43:53.655Z,98391.00
2023-02-19T10:46:20.714Z,98403.25
2023-02-19T10:48:53.560Z,98400.66
2023-02-19T10:51:25.418Z,98396.84
2023-02-19T10:54:02.896Z,98402.25
2023-02-19T10:56:31.389Z,98399.66
2023-02-19T10:59:23.147Z,98406.06
2023-02-19T11:01:54.576Z,98406.91
2023-02-19T11:04:21.491Z,98413.13
2023-02-19T11:06:48.638Z,98417.53
2023-02-19T11:09:31.083Z,98424.78
2023-02-19T11:11:59.523Z,98423.78
2023-02-19T11:14:26.690Z,98426.47
2023-02-19T11:16:57.528Z,98429.28
2023-02-19T11:19:27.577Z,98439.31
2023-02-19T11:21:54.947Z,98436.75
2023-02-19T11:24:29.048Z,98444.47
2023-02-19T11:26:56.644Z,98458.88
2023-02-19T11:29:24.627Z,98456.84
2023-02-19T11:31:51.855Z,98467.59
2023-02-19T11:34:21.397Z,98477.38
2023-02-19T11:36:53.599Z,98484.72
2023-02-19T11:39:22.928Z,98493.88
2023-02-19T11:42:21.929Z,98498.41
2023-02-19T11:45:01.067Z,98489.50
2023-02-19T11:48:05.343Z,98499.38
2023-02-19T11:50:59.641Z,98506.50
2023-02-19T11:53:33.967Z,98500.84
2023-02-19T11:56:16.895Z,98515.66
2023-02-19T11:59:00.821Z,98508.31
2023-02-19T12:01:33.697Z,98513.06
2023-02-19T12:04:19.172Z,98522.72
2023-02-19T12:07:17.597Z,98528.22
2023-02-19T12:10:06.052Z,98516.72
2023-02-19T12:12:39.121Z,98532.88
2023-02-19T12:15:15.461Z,98543.91
2023-02-19T12:17:54.173Z,98546.59
2023-02-19T12:20:42.579Z,98550.41
2023-02-19T12:23:48.010Z,98559.66
2023-02-19T12:26:27.820Z,98560.78
2023-02-19T12:29:32.177Z,98572.28
2023-02-19T12:32:21.189Z,98573.97
2023-02-19T12:34:51.057Z,98576.16
2023-02-19T12:37:32.524Z,98579.13
2023-02-19T12:40:28.067Z,98570.03
2023-02-19T12:43:04.086Z,98568.69
2023-02-19T12:45:53.085Z,98578.84
2023-02-19T12:48:26.373Z,98590.78
2023-02-19T12:51:01.209Z,98589.59
2023-02-19T12:53:33.824Z,98590.78
2023-02-19T12:56:00.971Z,98589.09
2023-02-19T12:58:55.872Z,98588.97
2023-02-19T13:01:28.524Z,98601.44
2023-02-19T13:04:35.308Z,98606.59
2023-02-19T13:07:08.806Z,98611.47
2023-02-19T13:09:57.026Z,98626.34
2023-02-19T13:12:26.435Z,98623.06
2023-02-19T13:15:01.363Z,98628.00
2023-02-19T13:17:47.990Z,98637.25
2023-02-19T13:20:37.194Z,98644.94
2023-02-19T13:23:32.074Z,98647.41
2023-02-19T13:26:18.093Z,98653.25
2023-02-19T13:29:00.554Z,98646.13
2023-02-19T13:32:00.647Z,98647.47
2023-02-19T13:35:05.340Z,98651.34
2023-02-19T13:37:34.410Z,98659.19
2023-02-19T13:40:05.328Z,98651.53
2023-02-19T13:42:34.272Z,98656.06
2023-02-19T13:45:05.492Z,98662.72
2023-02-19T13:47:54.537Z,98672.31
2023-02-19T13:50:26.408Z,98671.31
2023-02-19T13:52:54.998Z,98669.94
2023-02-19T13:55:44.465Z,98683.91
2023-02-19T13:58:33.536Z,98683.47
2023-02-19T14:01:01.723Z,98684.88
2023-02-19T14:03:52.076Z,98691.34
2023-02-19T14:06:19.019Z,98697.16
2023-02-19T14:08:58.707Z,98698.78
2023-02-19T14:11:51.853Z,98705.53
2023-02-19T14:14:41.748Z,98719.41
2023-02-19T14:17:08.574Z,98721.47
2023-02-19T14:19:41.819Z,98737.72
2023-02-19T14:22:45.965Z,98730.53
2023-02-19T14:25:31.373Z,98737.50
2023-02-19T14:28:10.311Z,98741.28
2023-02-19T14:30:55.897Z,98738.72
2023-02-19T14:33:33.286Z,98744.09
2023-02-19T14:36:06.535Z,98748.84
2023-02-19T14:38:39.317Z,98747.31
2023-02-19T14:41:06.464Z,98743.69
2023-02-19T14:43:33.438Z,98751.41
2023-02-19T14:46:02.137Z,98753.22
2023-02-19T14:48:34.778Z,98758.41
2023-02-19T14:51:07.987Z,98764.22
2023-02-19T14:53:40.521Z,98770.56
2023-02-19T14:56:07.746Z,98764.22
2023-02-19T14:58:36.942Z,98766.03
2023-02-19T15:01:05.572Z,98773.81
2023-02-19T15:03:34.484Z,98768.44
2023-02-19T15:06:05.956Z,98776.06
2023-02-19T15:08:42.434Z,98782.53
2023-02-19T15:11:16.549Z,98784.31
2023-02-19T15:13:45.802Z,98795.19
2023-02-19T15:16:18.208Z,98802.28
2023-02-19T15:18:46.492Z,98793.69
2023-02-19T15:21:21.477Z,98800.25
2023-02-19T15:23:48.241Z,98809.06
2023-02-19T15:26:20.234Z,98818.19
2023-02-19T15:28:47.039Z,98817.44
2023-02-19T15:31:15.582Z,98823.78
2023-02-19T15:33:50.439Z,98827.56
2023-02-19T15:36:29.887Z,98840.44
2023-02-19T15:38:58.497Z,98844.09
2023-02-19T15:41:28.437Z,98849.56
2023-02-19T15:44:36.546Z,98853.34
2023-02-19T15:47:11.481Z,98856.53
2023-02-19T15:49:55.591Z,98865.25
2023-02-19T15:52:41.450Z,98862.66
2023-02-19T15:55:17.607Z,98860.22
2023-02-19T15:57:47.253Z,98869.97
2023-02-19T16:00:24.241Z,98882.56
2023-02-19T16:02:51.443Z,98878.75
2023-02-19T16:05:26.415Z,98894.84
2023-02-19T16:08:07.141Z,98896.66
2023-02-19T16:10:34.026Z,98896.22
2023-02-19T16:13:02.665Z,98897.94
2023-02-19T16:15:30.502Z,98908.00
2023-02-19T16:17:57.659Z,98922.66
2023-02-19T16:20:28.285Z,98922.66
2023-02-19T16:23:00.918Z,98928.25
2023-02-19T16:25:37.550Z,98930.72
2023-02-19T16:28:33.574Z,98941.69
2023-02-19T16:31:07.582Z,98940.06
2023-02-19T16:33:48.200Z,98947.47
2023-02-19T16:36:34.424Z,98957.44
2023-02-19T16:39:07.636Z,98977.03
2023-02-19T16:41:35.036Z,98978.63
2023-02-19T16:44:06.585Z,98991.41
2023-02-19T16:46:33.392Z,98993.72
2023-02-19T16:49:00.519Z,98999.09
2023-02-19T16:51:27.366Z,98998.63
2023-02-19T16:53:54.465Z,99002.16
2023-02-19T16:56:23.123Z,98997.56
2023-02-19T16:58:50.509Z,99014.53
2023-02-19T17:01:17.779Z,99013.88
2023-02-19T17:03:45.195Z,99023.94
2023-02-19T17:06:12.093Z,99025.94
2023-02-19T17:08:43.183Z,99029.50
2023-02-19T17:11:14.882Z,99036.81
2023-02-19T17:13:42.479Z,99045.91
2023-02-19T17:16:13.512Z,99043.13
2023-02-19T17:18:40.557Z,99052.25
2023-02-19T17:21:15.169Z,99040.84
2023-02-19T17:23:42.428Z,99041.78
2023-02-19T17:26:14.813Z,99055.19
2023-02-19T17:28:41.874Z,99061.25
2023-02-19T17:31:10.638Z,99063.91
2023-02-19T17:33:38.606Z,99064.81
2023-02-19T17:36:05.856Z,99068.25
2023-02-19T17:38:33.020Z,99078.91
2023-02-19T17:40:59.787Z,99084.06
2023-02-19T17:43:26.906Z,99084.16
2023-02-19T17:45:53.727Z,99085.97
2023-02-19T17:48:20.820Z,99096.63
2023-02-19T17:50:50.321Z,99093.94
2023-02-19T17:53:17.348Z,99107.81
2023-02-19T17:55:44.432Z,99099.75
2023-02-19T17:58:11.758Z,99098.00
2023-02-19T18:00:38.630Z,99107.13
2023-02-19T18:03:07.596Z,99122.16
2023-02-19T18:05:34.449Z,99110.19
2023-02-19T18:08:01.524Z,99115.44
2023-02-19T18:10:28.386Z,99119.19
2023-02-19T18:12:55.559Z,99121.97
2023-02-19T18:15:24.194Z,99125.59
2023-02-19T18:17:51.315Z,99127.78
2023-02-19T18:20:22.955Z,99132.28
2023-02-19T18:22:50.096Z,99132.19
2023-02-19T18:25:17.311Z,99129.59
2023-02-19T18:27:44.602Z,99135.91
2023-02-19T18:30:12.273Z,99137.06
2023-02-19T18:32:39.787Z,99140.53
2023-02-19T18:35:07.152Z,99149.09
2023-02-19T18:37:35.524Z,99147.97
2023-02-19T18:40:04.168Z,99144.69
2023-02-19T18:42:31.414Z,99152.66
2023-02-19T18:44:58.366Z,99160.88
2023-02-19T18:47:25.738Z,99158.38
2023-02-19T18:49:54.145Z,99162.88
2023-02-19T18:52:21.778Z,99169.25
2023-02-19T18:54:49.389Z,99170.50
2023-02-19T18:57:16.583Z,99159.78
2023-02-19T18:59:43.454Z,99168.84
2023-02-19T19:02:10.694Z,99170.94
2023-02-19T19:04:38.189Z,99180.28
2023-02-19T19:07:05.733Z,99195.13
2023-02-19T19:09:33.202Z,99196.19
2023-02-19T19:12:00.475Z,99200.66
2023-02-19T19:14:27.376Z,99206.16
2023-02-19T19:16:54.533Z,99200.44
2023-02-19T19:19:21.389Z,99197.75
2023-02-19T19:21:54.774Z,99209.56
2023-02-19T19:24:22.278Z,99204.91
2023-02-19T19:26:50.022Z,99215.72
2023-02-19T19:29:18.058Z,99214.94
2023-02-19T19:31:45.320Z,99219.53
2023-02-19T19:34:12.316Z,99222.13
2023-02-19T19:36:39.483Z,99212.44
2023-02-19T19:39:06.739Z,99220.75
2023-02-19T19:41:33.883Z,99210.97
2023-02-19T19:44:04.873Z,99218.31
2023-02-19T19:46:32.601Z,99224.78
2023-02-19T19:48:59.429Z,99224.53
2023-02-19T19:51:33.539Z,99227.28
2023-02-19T19:54:01.188Z,99230.13
2023-02-19T19:56:28.343Z,99219.78
2023-02-19T19:58:55.167Z,99220.53
2023-02-19T20:01:23.285Z,99221.31
2023-02-19T20:03:51.213Z,99227.66
2023-02-19T20:06:28.696Z,99211.56
2023-02-19T20:08:55.704Z,99225.97
2023-02-19T20:11:23.314Z,99234.97
2023-02-19T20:13:50.155Z,99229.59
2023-02-19T20:16:17.343Z,99237.56
2023-02-19T20:18:44.196Z,99226.91
2023-02-19T20:21:11.778Z,99235.06
2023-02-19T20:23:39.805Z,99227.97
2023-02-19T20:26:07.195Z,99231.59
2023-02-19T20:28:34.029Z,99236.94
2023-02-19T20:31:01.443Z,99236.94
2023-02-19T20:33:28.465Z,99247.66
2023-02-19T20:35:56.969Z,99263.81
2023-02-19T20:38:23.799Z,99255.16
2023-02-19T20:40:50.966Z,99267.53
2023-02-19T20:43:17.820Z,99263.13
2023-02-19T20:45:46.502Z,99265.72
2023-02-19T20:48:17.982Z,99266.78
2023-02-19T20:50:45.156Z,99267.63
2023-02-19T20:53:12.050Z,99267.69
2023-02-19T20:55:39.294Z,99267.88
2023-02-19T20:58:06.105Z,99266.84
2023-02-19T21:00:33.221Z,99264.41
2023-02-19T21:03:00.075Z,99264.16
2023-02-19T21:05:27.596Z,99262.44
2023-02-19T21:07:54.420Z,99278.81
2023-02-19T21:10:22.059Z,99280.47
2023-02-19T21:12:50.637Z,99288.44
2023-02-19T21:15:18.001Z,99289.28
2023-02-19T21:17:45.667Z,99293.78
2023-02-19T21:20:13.654Z,99293.22
2023-02-19T21:22:40.646Z,99299.31
2023-02-19T21:25:07.884Z,99302.03
2023-02-19T21:27:34.697Z,99307.47
2023-02-19T21:30:01.875Z,99311.84
2023-02-19T21:32:28.712Z,99315.38
2023-02-19T21:34:55.903Z,99317.97
2023-02-19T21:37:22.759Z,99315.22
2023-02-19T21:39:49.879Z,99312.69
2023-02-19T21:42:16.736Z,99318.91
2023-02-19T21:44:43.800Z,99323.34
2023-02-19T21:47:12.282Z,99321.59
2023-02-19T21:49:41.796Z,99328.81
2023-02-19T21:52:08.815Z,99326.88
2023-02-19T21:54:35.938Z,99336.84
2023-02-19T21:57:03.251Z,99340.34
2023-02-19T21:59:30.335Z,99343.16
2023-02-19T22:01:57.279Z,99344.03
2023-02-19T22:04:24.656Z,99335.97
2023-02-19T22:06:54.799Z,99334.47
2023-02-19T22:09:21.900Z,99331.03
2023-02-19T22:11:48.752Z,99332.06
2023-02-19T22:14:16.209Z,99339.84
2023-02-19T22:16:43.005Z,99348.78
2023-02-19T22:19:12.053Z,99353.22
2023-02-19T22:21:42.292Z,99348.06
2023-02-19T22:24:20.112Z,99344.66
2023-02-19T22:26:47.360Z,99342.59
2023-02-19T22:29:14.973Z,99353.56
2023-02-19T22:31:42.076Z,99357.97
2023-02-19T22:34:09.485Z,99363.41
2023-02-19T22:36:39.817Z,99366.88
2023-02-19T22:39:08.030Z,99365.28
2023-02-19T22:41:34.787Z,99368.13
2023-02-19T22:44:01.905Z,99366.25
2023-02-19T22:46:29.625Z,99360.16
2023-02-19T22:48:56.943Z,99365.69
2023-02-19T22:51:23.912Z,99372.91
2023-02-19T22:53:53.006Z,99379.94
2023-02-19T22:56:20.572Z,99383.63
2023-02-19T22:58:47.690Z,99392.63
2023-02-19T23:01:14.704Z,99388.59
2023-02-19T23:03:58.397Z,99387.50
2023-02-19T23:06:27.298Z,99394.66
2023-02-19T23:08:55.093Z,99392.78
2023-02-19T23:11:23.546Z,99396.38
2023-02-19T23:13:50.790Z,99399.13
2023-02-19T23:16:17.633Z,99397.88
2023-02-19T23:18:44.745Z,99407.50
2023-02-19T23:21:11.631Z,99405.75
2023-02-19T23:23:41.556Z,99414.63
2023-02-19T23:26:08.560Z,99422.66
2023-02-19T23:28:35.627Z,99417.72
2023-02-19T23:31:02.438Z,99418.41
2023-02-19T23:33:29.510Z,99404.97
2023-02-19T23:35:56.315Z,99406.94
2023-02-19T23:38:23.360Z,99414.97
2023-02-19T23:40:50.151Z,99409.69
2023-02-19T23:43:17.189Z,99401.88
2023-02-19T23:45:43.982Z,99393.69
2023-02-19T23:48:11.096Z,99390.94
2023-02-19T23:50:37.821Z,99388.34
2023-02-19T23:53:05.001Z,99396.66
2023-02-19T23:55:31.738Z,99394.69
2023-02-19T23:57:58.804Z,99396.88
